createdAt,value
2023-05-25T00:01:33.551Z,98606.91
2023-05-25T00:04:05.120Z,98609.34
2023-05-25T00:06:55.287Z,98619.22
2023-05-25T00:09:44.702Z,98623.75
2023-05-25T00:12:21.734Z,98618.56
2023-05-25T00:14:51.881Z,98622.66
2023-05-25T00:20:09.925Z,98629.56
2023-05-25T00:22:47.319Z,98627.72
2023-05-25T00:25:21.137Z,98627.94
2023-05-25T00:30:44.079Z,98629.75
2023-05-25T00:33:16.453Z,98569.34
2023-05-25T00:35:45.027Z,98629.31
2023-05-25T00:38:18.264Z,98628.97
2023-05-25T00:40:55.198Z,98635.19
2023-05-25T00:43:26.859Z,98634.13
2023-05-25T00:45:58.344Z,98643.47
2023-05-25T00:48:44.024Z,98631.84
2023-05-25T00:51:17.308Z,98637.94
2023-05-25T00:53:48.792Z,98580.84
2023-05-25T00:56:25.843Z,98634.53
2023-05-25T00:58:56.135Z,98635.69
2023-05-25T01:01:30.670Z,98643.06
2023-05-25T01:04:12.785Z,98640.72
2023-05-25T01:06:44.668Z,98642.34
2023-05-25T01:09:22.969Z,98639.84
2023-05-25T01:12:06.503Z,98647.91
2023-05-25T01:14:37.355Z,98652.41
2023-05-25T01:17:08.022Z,98654.50
2023-05-25T01:19:42.052Z,98651.72
2023-05-25T01:22:31.719Z,98650.28
2023-05-25T01:25:20.185Z,98661.91
2023-05-25T01:28:00.903Z,98652.88
2023-05-25T01:30:38.887Z,98657.66
2023-05-25T01:33:19.204Z,98598.34
2023-05-25T01:35:53.647Z,98666.22
2023-05-25T01:38:27.251Z,98670.50
2023-05-25T01:40:57.840Z,98661.34
2023-05-25T01:43:27.844Z,98663.66
2023-05-25T01:46:08.519Z,98665.97
2023-05-25T01:48:59.004Z,98656.31
2023-05-25T01:51:49.436Z,98649.25
2023-05-25T01:54:24.220Z,98651.38
2023-05-25T01:56:56.600Z,98663.34
2023-05-25T01:59:38.024Z,98659.09
2023-05-25T02:02:10.365Z,98661.69
2023-05-25T02:04:44.939Z,98667.75
2023-05-25T02:07:23.866Z,98663.03
2023-05-25T02:10:00.083Z,98662.81
2023-05-25T02:12:35.072Z,98659.22
2023-05-25T02:15:13.926Z,98661.53
2023-05-25T02:17:53.318Z,98663.06
2023-05-25T02:20:22.564Z,98660.09
2023-05-25T02:22:55.821Z,98665.56
2023-05-25T02:25:26.943Z,98667.06
2023-05-25T02:28:00.197Z,98672.16
2023-05-25T02:30:30.208Z,98677.53
2023-05-25T02:33:16.293Z,98677.03
2023-05-25T02:35:46.945Z,98678.06
2023-05-25T02:38:20.543Z,98679.56
2023-05-25T02:40:57.964Z,98677.47
2023-05-25T02:43:27.796Z,98690.91
2023-05-25T02:46:01.004Z,98691.91
2023-05-25T02:48:31.610Z,98691.44
2023-05-25T02:51:03.209Z,98689.13
2023-05-25T02:53:42.105Z,98699.47
2023-05-25T02:56:16.672Z,98697.97
2023-05-25T03:01:50.094Z,98700.47
2023-05-25T03:04:45.395Z,98692.94
2023-05-25T03:10:05.351Z,98700.63
2023-05-25T03:15:21.255Z,98710.28
2023-05-25T03:17:51.637Z,98711.78
2023-05-25T03:20:26.741Z,98719.00
2023-05-25T03:23:06.403Z,98718.88
2023-05-25T03:25:39.251Z,98648.84
2023-05-25T03:28:08.694Z,98714.75
2023-05-25T03:30:48.332Z,98718.34
2023-05-25T03:33:24.707Z,98721.75
2023-05-25T03:36:00.180Z,98724.19
2023-05-25T03:38:29.166Z,98720.94
2023-05-25T03:41:00.556Z,98737.66
2023-05-25T03:43:28.960Z,98729.78
2023-05-25T03:46:09.751Z,98735.16
2023-05-25T03:51:32.572Z,98744.88
2023-05-25T03:56:44.269Z,98748.44
2023-05-25T03:59:15.056Z,98745.28
2023-05-25T04:01:58.369Z,98750.38
2023-05-25T04:04:56.899Z,98752.84
2023-05-25T04:07:43.983Z,98749.25
2023-05-25T04:10:17.850Z,98755.63
2023-05-25T04:12:51.279Z,98761.69
2023-05-25T04:15:22.855Z,98760.88
2023-05-25T04:18:03.723Z,98764.47
2023-05-25T04:23:26.262Z,98776.63
2023-05-25T04:26:05.322Z,98781.81
2023-05-25T04:28:44.153Z,98785.91
2023-05-25T04:31:30.072Z,98787.84
2023-05-25T04:34:26.491Z,98787.31
2023-05-25T04:37:17.078Z,98787.66
2023-05-25T04:39:49.722Z,98787.81
2023-05-25T04:42:22.314Z,98788.91
2023-05-25T04:44:54.275Z,98794.47
2023-05-25T04:47:30.319Z,98788.16
2023-05-25T04:50:04.028Z,98798.13
2023-05-25T04:52:32.769Z,98792.69
2023-05-25T04:55:03.237Z,98799.69
2023-05-25T04:57:44.388Z,98790.38
2023-05-25T05:00:19.755Z,98790.31
2023-05-25T05:03:07.276Z,98793.25
2023-05-25T05:05:41.129Z,98798.63
2023-05-25T05:08:17.049Z,98806.19
2023-05-25T05:10:50.120Z,98807.28
2023-05-25T05:13:24.160Z,98807.75
2023-05-25T05:15:54.620Z,98739.78
2023-05-25T05:18:26.023Z,98796.44
2023-05-25T05:20:59.018Z,98802.00
2023-05-25T05:23:31.015Z,98797.47
2023-05-25T05:26:07.632Z,98807.28
2023-05-25T05:28:36.642Z,98808.78
2023-05-25T05:31:16.893Z,98814.50
2023-05-25T05:33:56.919Z,98824.03
2023-05-25T05:36:41.862Z,98823.09
2023-05-25T05:39:17.934Z,98826.31
2023-05-25T05:41:49.289Z,98824.84
2023-05-25T05:44:20.053Z,98829.09
2023-05-25T05:46:53.631Z,98839.94
2023-05-25T05:49:25.203Z,98842.84
2023-05-25T05:52:04.788Z,98844.19
2023-05-25T05:54:42.035Z,98843.50
2023-05-25T05:57:17.745Z,98831.91
2023-05-25T05:59:54.937Z,98842.41
2023-05-25T06:02:25.918Z,98844.88
2023-05-25T06:04:59.894Z,98833.69
2023-05-25T06:07:31.360Z,98843.81
2023-05-25T06:10:02.479Z,98839.47
2023-05-25T06:12:40.104Z,98848.19
2023-05-25T06:15:10.638Z,98835.84
2023-05-25T06:17:43.468Z,98835.41
2023-05-25T06:20:16.415Z,98830.75
2023-05-25T06:23:01.353Z,98828.03
2023-05-25T06:25:38.781Z,98834.00
2023-05-25T06:28:07.854Z,98836.94
2023-05-25T06:30:38.218Z,98830.03
2023-05-25T06:33:12.254Z,98833.78
2023-05-25T06:38:29.011Z,98838.91
2023-05-25T06:41:03.402Z,98842.53
2023-05-25T06:43:32.294Z,98838.56
2023-05-25T06:46:26.825Z,98837.91
2023-05-25T06:49:00.152Z,98844.97
2023-05-25T06:51:30.847Z,98842.97
2023-05-25T06:54:04.656Z,98831.69
2023-05-25T06:56:34.859Z,98838.19
2023-05-25T06:59:02.942Z,98821.63
2023-05-25T07:01:34.029Z,98832.44
2023-05-25T07:04:11.258Z,98837.47
2023-05-25T07:06:41.922Z,98831.66
2023-05-25T07:09:18.691Z,98832.22
2023-05-25T07:11:59.177Z,98833.75
2023-05-25T07:14:34.054Z,98832.81
2023-05-25T07:17:07.004Z,98838.41
2023-05-25T07:22:30.559Z,98841.25
2023-05-25T08:41:09.047Z,98841.34
2023-05-25T08:43:45.411Z,98836.19
2023-05-25T08:46:20.457Z,98827.78
2023-05-25T08:48:54.217Z,98833.25
2023-05-25T08:51:23.803Z,98842.44
2023-05-25T08:53:57.611Z,98844.59
2023-05-25T08:56:36.992Z,98843.16
2023-05-25T08:59:32.024Z,98836.53
2023-05-25T09:02:25.580Z,98844.78
2023-05-25T09:05:06.550Z,98842.78
2023-05-25T09:07:39.586Z,98848.13
2023-05-25T09:10:22.878Z,98852.94
2023-05-25T09:13:16.630Z,98851.03
2023-05-25T09:15:50.472Z,98853.84
2023-05-25T09:18:24.282Z,98848.03
2023-05-25T09:21:01.419Z,98848.59
2023-05-25T09:23:31.918Z,98862.34
2023-05-25T09:26:04.837Z,98852.31
2023-05-25T09:28:41.202Z,98848.69
2023-05-25T09:31:11.149Z,98836.72
2023-05-25T09:33:58.060Z,98848.69
2023-05-25T09:36:35.140Z,98848.56
2023-05-25T09:39:21.218Z,98847.22
2023-05-25T09:41:56.155Z,98840.59
2023-05-25T09:44:29.551Z,98839.44
2023-05-25T09:46:59.910Z,98844.13
2023-05-25T09:49:39.126Z,98843.69
2023-05-25T09:52:10.175Z,98844.28
2023-05-25T09:54:48.933Z,98837.06
2023-05-25T09:57:26.804Z,98832.91
2023-05-25T09:59:55.093Z,98832.63
2023-05-25T10:02:25.961Z,98823.88
2023-05-25T10:04:57.655Z,98826.69
2023-05-25T10:07:28.269Z,98825.00
2023-05-25T10:09:59.310Z,98826.00
2023-05-25T10:12:33.652Z,98830.72
2023-05-25T10:15:16.646Z,98822.16
2023-05-25T10:18:04.067Z,98814.72
2023-05-25T10:20:35.320Z,98817.13
2023-05-25T10:23:29.065Z,98810.28
2023-05-25T10:26:02.049Z,98817.13
2023-05-25T10:28:37.942Z,98817.06
2023-05-25T10:31:08.525Z,98802.66
2023-05-25T10:33:55.397Z,98826.38
2023-05-25T10:36:29.045Z,98821.81
2023-05-25T10:39:05.098Z,98826.34
2023-05-25T10:41:42.985Z,98810.59
2023-05-25T10:44:17.032Z,98816.38
2023-05-25T10:46:58.562Z,98819.97
2023-05-25T10:49:42.256Z,98812.44
2023-05-25T10:52:15.840Z,98808.88
2023-05-25T10:54:49.574Z,98800.22
2023-05-25T10:57:28.425Z,98798.22
2023-05-25T11:00:13.077Z,98792.16
2023-05-25T11:03:03.099Z,98785.44
2023-05-25T11:05:36.786Z,98777.63
2023-05-25T11:08:15.976Z,98779.94
2023-05-25T11:10:54.948Z,98776.25
2023-05-25T11:13:46.489Z,98781.28
2023-05-25T11:16:20.214Z,98780.13
2023-05-25T11:19:07.803Z,98770.44
2023-05-25T11:21:44.233Z,98764.16
